Etusivu
METAR-TAF:

METAR-TAF

Lentoasemat :

Wakkanai, Japani

Leveyspiiri: 45-24N, Pituuspiiri: 141-48E, korkeus merenpinnasta: 8 m

Tämänhetkinen sää

Tämä raportti tehtiin 46 minuuttia sitten, kello 23.30 UTC
Tuuli 14 kn lännestä
Lämpötila -3°C
Kosteus 68%
Ilmanpaine 1021 hPa
Näkyvyys 10 km tai enemmän
Muutamia pilviä 2000 ft:n korkeudessa
Hajonneita pilviä 3000 ft:n korkeudessa
heikkoja lumikuuroja

METAR: RJCW 142330Z 27014KT 9999 -SHSN FEW020 BKN030 M03/M08 Q1021

Aika: 09:16 (00:16 UTC)


TAF: puuttuu

Säähavainnot ja -ennusteet yli 4000 lentoasemalta (METAR- ja TAF-raportit).

Käytössä olevat sääasemat on merkitty karttaan keltaisilla ja punaisilla pisteillä.

Aseta hiiri pisteen päälle nähdäksesi sääaseman nimen.

Klikkaa sitten nähdäksesi säähavainnot ja -ennusteet.

Kartan vaihtaminen: klikkaa mustalla rastilla varustettuja vihreitä pisteitä, niin voit zoomata sisään; viivalla varustettua vihreää pistettä, niin voit zoomata ulos tai vihreitä nuolia, niin pääset viereisille kartoille.


METAR-TAF: